Time;durP1;ratioP1;P1;durP2;ratioP2;P2;SDS_P1;SDS_P2;PMS_P1;PMS_P2;Temp;Humidity;BMP_temperature;BMP_pressure;BME280_temperature;BME280_humidity;BME280_pressure;Samples;Min_cycle;Max_cycle;Signal;HPM_P1;HPM_P2
2022/09/30 00:00:49;;;;;;;18.70;1.35;;;;;;;;;;4976917;28;20418;-67
2022/09/30 00:03:15;;;;;;;22.02;1.20;;;;;;;;;;4976966;28;20069;-67
2022/09/30 00:05:41;;;;;;;26.13;1.45;;;;;;;;;;4977873;28;20054;-67
2022/09/30 00:08:07;;;;;;;30.10;1.42;;;;;;;;;;4975041;28;20054;-67
2022/09/30 00:10:33;;;;;;;37.00;1.63;;;;;;;;;;4975522;28;20046;-67
2022/09/30 00:13:00;;;;;;;80.35;2.85;;;;;;;;;;4977039;28;20034;-67
2022/09/30 00:15:27;;;;;;;95.72;4.47;;;;;;;;;;4979899;28;20074;-67
2022/09/30 00:17:53;;;;;;;66.55;2.33;;;;;;;;;;4981594;28;20379;-67
2022/09/30 00:20:19;;;;;;;68.25;2.72;;;;;;;;;;4979842;28;20553;-67
2022/09/30 00:22:45;;;;;;;20.45;1.63;;;;;;;;;;4982901;28;20430;-67
2022/09/30 00:25:12;;;;;;;7.22;1.13;;;;;;;;;;4980162;28;20491;-67
2022/09/30 00:27:38;;;;;;;10.88;1.30;;;;;;;;;;4978904;28;20054;-67
2022/09/30 00:30:04;;;;;;;2.05;1.08;;;;;;;;;;4980835;28;20101;-67
2022/09/30 00:32:30;;;;;;;2.67;0.80;;;;;;;;;;4980330;28;20387;-67
2022/09/30 00:34:56;;;;;;;11.10;1.20;;;;;;;;;;4979988;28;20454;-67
2022/09/30 00:37:23;;;;;;;11.27;1.17;;;;;;;;;;4978465;28;20050;-67
2022/09/30 00:39:49;;;;;;;1.55;0.80;;;;;;;;;;4979068;28;20093;-67
2022/09/30 00:42:18;;;;;;;1.48;0.90;;;;;;;;;;4979054;28;20073;-67
2022/09/30 00:44:46;;;;;;;20.40;1.05;;;;;;;;;;4976418;28;20129;-67
2022/09/30 00:47:16;;;;;;;20.70;0.93;;;;;;;;;;4976929;28;20054;-68
2022/09/30 00:49:42;;;;;;;36.60;1.27;;;;;;;;;;4973686;28;21985;-67
2022/09/30 00:52:09;;;;;;;16.15;1.20;;;;;;;;;;4973028;28;20141;-67
2022/09/30 00:54:35;;;;;;;20.98;1.10;;;;;;;;;;4973859;28;20054;-67
2022/09/30 00:57:02;;;;;;;12.10;1.00;;;;;;;;;;4975323;28;20105;-67
2022/09/30 00:59:32;;;;;;;3.78;0.70;;;;;;;;;;4976727;28;20057;-67
2022/09/30 01:01:58;;;;;;;9.43;0.63;;;;;;;;;;4975382;28;20136;-67
2022/09/30 01:04:25;;;;;;;25.38;1.60;;;;;;;;;;4978108;28;20921;-67
2022/09/30 01:06:52;;;;;;;60.67;2.17;;;;;;;;;;4980015;28;20066;-67
2022/09/30 01:09:18;;;;;;;176.70;5.47;;;;;;;;;;4978982;28;20410;-67
2022/09/30 01:11:45;;;;;;;64.95;2.70;;;;;;;;;;4977835;28;20046;-67
2022/09/30 01:14:15;;;;;;;55.70;2.55;;;;;;;;;;4980554;28;20050;-67
2022/09/30 01:16:53;;;;;;;62.70;3.42;;;;;;;;;;4981914;28;20060;-67
2022/09/30 01:19:26;;;;;;;40.70;2.58;;;;;;;;;;4984559;28;20049;-67
2022/09/30 01:22:01;;;;;;;51.30;3.10;;;;;;;;;;4981977;28;20050;-67
2022/09/30 01:24:37;;;;;;;9.05;2.40;;;;;;;;;;4981454;28;20126;-67
2022/09/30 01:27:15;;;;;;;4.75;1.85;;;;;;;;;;4982318;28;20054;-67
2022/09/30 01:29:55;;;;;;;4.28;1.10;;;;;;;;;;4983281;28;21353;-67
2022/09/30 01:32:27;;;;;;;8.18;2.00;;;;;;;;;;4983462;28;20050;-67
2022/09/30 01:35:14;;;;;;;4.10;2.40;;;;;;;;;;4985168;28;20080;-67
2022/09/30 01:37:41;;;;;;;4.40;2.70;;;;;;;;;;4981155;28;20379;-67
2022/09/30 01:40:22;;;;;;;5.78;2.72;;;;;;;;;;4983584;28;20078;-67
2022/09/30 01:42:53;;;;;;;5.60;2.33;;;;;;;;;;4979993;28;20065;-68
2022/09/30 01:45:33;;;;;;;3.40;1.83;;;;;;;;;;4978129;28;20054;-67
2022/09/30 01:48:02;;;;;;;3.60;1.90;;;;;;;;;;4979719;28;20104;-67
2022/09/30 01:50:38;;;;;;;3.67;1.80;;;;;;;;;;4976703;28;20046;-67
2022/09/30 01:53:11;;;;;;;7.18;1.83;;;;;;;;;;4978811;28;20143;-67
2022/09/30 01:55:42;;;;;;;9.73;2.05;;;;;;;;;;4978016;28;20535;-67
2022/09/30 01:58:13;;;;;;;2.63;1.35;;;;;;;;;;4979258;28;20081;-67
2022/09/30 02:00:41;;;;;;;2.75;1.80;;;;;;;;;;4979474;28;20046;-67
2022/09/30 02:03:11;;;;;;;4.43;2.00;;;;;;;;;;4978017;28;20069;-67
2022/09/30 02:05:41;;;;;;;3.30;1.92;;;;;;;;;;4978550;28;20498;-67
2022/09/30 02:08:10;;;;;;;5.25;2.63;;;;;;;;;;4979266;28;20410;-67
2022/09/30 02:10:43;;;;;;;5.75;2.60;;;;;;;;;;4976443;28;20054;-67
2022/09/30 02:13:15;;;;;;;6.13;2.25;;;;;;;;;;4975493;28;20157;-67
2022/09/30 02:15:43;;;;;;;4.63;2.50;;;;;;;;;;4978788;28;20054;-67
2022/09/30 02:18:17;;;;;;;9.07;2.85;;;;;;;;;;4980452;28;20073;-67
2022/09/30 02:20:44;;;;;;;5.70;2.58;;;;;;;;;;4980307;28;21565;-67
2022/09/30 02:23:20;;;;;;;9.10;3.00;;;;;;;;;;4979384;28;20980;-67
2022/09/30 02:25:49;;;;;;;4.50;2.80;;;;;;;;;;4977245;28;20348;-67
2022/09/30 02:28:19;;;;;;;3.63;1.98;;;;;;;;;;4976120;28;20101;-67
2022/09/30 02:30:48;;;;;;;7.88;1.30;;;;;;;;;;4978878;28;20426;-67
2022/09/30 02:33:17;;;;;;;54.72;2.28;;;;;;;;;;4975386;28;20108;-67
2022/09/30 02:35:47;;;;;;;16.92;1.88;;;;;;;;;;4978100;28;20493;-67
2022/09/30 02:38:18;;;;;;;22.35;1.52;;;;;;;;;;4977137;28;20065;-67
2022/09/30 02:40:47;;;;;;;0.93;0.63;;;;;;;;;;4976018;28;20137;-67
2022/09/30 02:43:14;;;;;;;23.80;2.15;;;;;;;;;;4977218;28;20611;-67
2022/09/30 02:45:45;;;;;;;14.60;1.83;;;;;;;;;;4979124;28;20058;-67
2022/09/30 02:48:33;;;;;;;23.25;1.80;;;;;;;;;;4976836;28;20057;-67
2022/09/30 02:51:03;;;;;;;3.25;1.10;;;;;;;;;;4974659;28;20047;-67
2022/09/30 02:53:30;;;;;;;3.40;1.60;;;;;;;;;;4974540;28;20078;-67
2022/09/30 02:55:56;;;;;;;3.28;1.38;;;;;;;;;;4977031;28;20047;-67
2022/09/30 02:58:25;;;;;;;3.97;1.30;;;;;;;;;;4979538;28;20074;-67
2022/09/30 03:00:52;;;;;;;3.65;1.50;;;;;;;;;;4979440;28;20046;-67
2022/09/30 03:03:20;;;;;;;3.70;1.30;;;;;;;;;;4980089;28;20137;-67
2022/09/30 03:05:48;;;;;;;4.43;1.70;;;;;;;;;;4980011;28;20093;-67
2022/09/30 03:08:14;;;;;;;3.17;1.67;;;;;;;;;;4977364;28;20105;-68
2022/09/30 03:10:41;;;;;;;2.03;1.20;;;;;;;;;;4977801;28;20545;-67
2022/09/30 03:13:19;;;;;;;3.03;1.48;;;;;;;;;;4979975;28;20078;-67
2022/09/30 03:15:51;;;;;;;2.75;1.60;;;;;;;;;;4981469;28;20082;-67
2022/09/30 03:18:30;;;;;;;16.38;2.15;;;;;;;;;;4980423;28;22134;-66
2022/09/30 03:21:08;;;;;;;16.65;3.00;;;;;;;;;;4980104;28;20042;-67
2022/09/30 03:23:59;;;;;;;57.40;4.32;;;;;;;;;;4982846;28;20053;-67
2022/09/30 03:26:32;;;;;;;52.10;3.17;;;;;;;;;;4964390;28;20069;-68
2022/09/30 03:29:16;;;;;;;39.42;2.83;;;;;;;;;;4980093;28;20042;-67
2022/09/30 03:31:43;;;;;;;66.40;3.08;;;;;;;;;;4979744;28;20834;-67
2022/09/30 03:34:14;;;;;;;59.17;3.03;;;;;;;;;;4981356;28;20034;-67
2022/09/30 03:36:44;;;;;;;30.77;2.40;;;;;;;;;;4979840;28;22091;-67
2022/09/30 03:39:15;;;;;;;62.17;3.00;;;;;;;;;;4979327;28;21773;-68
2022/09/30 03:41:45;;;;;;;109.80;4.63;;;;;;;;;;4981209;28;20054;-67
2022/09/30 03:44:16;;;;;;;81.68;3.88;;;;;;;;;;4974227;28;20831;-67
2022/09/30 03:46:46;;;;;;;33.35;2.80;;;;;;;;;;4977516;28;20053;-67
2022/09/30 03:49:22;;;;;;;48.45;3.05;;;;;;;;;;4978756;28;20555;-67
2022/09/30 03:51:49;;;;;;;58.67;3.00;;;;;;;;;;4974263;28;20169;-67
2022/09/30 03:54:15;;;;;;;34.17;2.63;;;;;;;;;;4975814;28;20034;-67
2022/09/30 03:56:42;;;;;;;69.15;3.53;;;;;;;;;;4976191;28;20082;-67
2022/09/30 03:59:12;;;;;;;38.10;2.58;;;;;;;;;;4976933;28;20146;-67
2022/09/30 04:01:38;;;;;;;22.42;2.67;;;;;;;;;;4967912;28;20058;-67
2022/09/30 04:04:05;;;;;;;47.60;2.50;;;;;;;;;;4978761;28;20042;-68
2022/09/30 04:06:31;;;;;;;49.63;3.85;;;;;;;;;;4975174;28;20038;-67
2022/09/30 04:08:57;;;;;;;60.47;3.08;;;;;;;;;;4972835;28;20093;-67
2022/09/30 04:11:23;;;;;;;114.80;4.80;;;;;;;;;;4976242;28;20394;-67
2022/09/30 04:13:49;;;;;;;61.35;2.58;;;;;;;;;;4975368;28;20405;-67
2022/09/30 04:16:15;;;;;;;58.33;3.17;;;;;;;;;;4978736;28;20045;-68
2022/09/30 04:18:42;;;;;;;77.22;3.15;;;;;;;;;;4979271;28;20061;-67
2022/09/30 04:21:09;;;;;;;96.70;3.17;;;;;;;;;;4975492;28;20046;-67
2022/09/30 04:23:36;;;;;;;97.03;3.83;;;;;;;;;;4976916;28;20082;-65
2022/09/30 04:26:02;;;;;;;74.80;3.17;;;;;;;;;;4976453;28;20042;-67
2022/09/30 04:28:28;;;;;;;34.20;1.67;;;;;;;;;;4974375;28;20521;-67
2022/09/30 04:30:54;;;;;;;27.55;2.03;;;;;;;;;;4979155;28;20057;-67
2022/09/30 04:33:20;;;;;;;46.20;2.60;;;;;;;;;;4976219;28;20129;-67
2022/09/30 04:35:46;;;;;;;71.97;2.83;;;;;;;;;;4973399;28;20053;-67
2022/09/30 04:38:13;;;;;;;51.15;2.45;;;;;;;;;;4975534;28;20077;-67
2022/09/30 04:40:39;;;;;;;77.97;3.42;;;;;;;;;;4980896;28;20497;-67
2022/09/30 04:43:05;;;;;;;80.63;3.63;;;;;;;;;;4975399;28;20049;-68
2022/09/30 04:45:31;;;;;;;69.75;3.55;;;;;;;;;;4983900;28;20038;-66
2022/09/30 04:47:58;;;;;;;115.80;6.28;;;;;;;;;;4983087;28;20180;-67
2022/09/30 04:50:24;;;;;;;138.38;6.25;;;;;;;;;;4984294;28;20049;-67
2022/09/30 04:52:50;;;;;;;169.30;5.95;;;;;;;;;;4985741;28;20549;-67
2022/09/30 04:55:16;;;;;;;210.88;7.03;;;;;;;;;;4986948;28;20042;-67
2022/09/30 04:57:44;;;;;;;241.15;8.55;;;;;;;;;;4986941;28;20110;-67
2022/09/30 05:00:10;;;;;;;203.02;6.63;;;;;;;;;;4984213;28;21152;-67
2022/09/30 05:02:36;;;;;;;155.38;5.97;;;;;;;;;;4983036;28;20108;-67
2022/09/30 05:05:03;;;;;;;167.63;5.88;;;;;;;;;;4984437;28;20121;-67
2022/09/30 05:07:30;;;;;;;181.90;6.07;;;;;;;;;;4982118;28;20524;-67
2022/09/30 05:09:56;;;;;;;135.98;5.53;;;;;;;;;;4984033;28;20311;-67
2022/09/30 05:12:24;;;;;;;98.22;4.00;;;;;;;;;;4986999;28;20046;-67
2022/09/30 05:14:50;;;;;;;105.93;3.95;;;;;;;;;;4988930;28;20402;-66
2022/09/30 05:17:16;;;;;;;83.22;3.55;;;;;;;;;;4987285;28;20579;-67
2022/09/30 05:19:42;;;;;;;105.80;5.55;;;;;;;;;;4986230;28;20087;-67
2022/09/30 05:22:08;;;;;;;69.97;5.00;;;;;;;;;;4986153;28;20100;-66
2022/09/30 05:24:34;;;;;;;66.22;3.70;;;;;;;;;;4984026;28;20038;-66
2022/09/30 05:27:01;;;;;;;207.73;10.10;;;;;;;;;;4979920;28;20050;-67
2022/09/30 05:29:27;;;;;;;114.75;5.93;;;;;;;;;;4981925;28;20517;-68
2022/09/30 05:31:53;;;;;;;108.22;5.97;;;;;;;;;;4985543;28;20046;-67
2022/09/30 05:34:20;;;;;;;46.28;3.55;;;;;;;;;;4983268;28;20144;-68
2022/09/30 05:36:46;;;;;;;21.48;2.83;;;;;;;;;;4983075;28;20100;-67
2022/09/30 05:39:12;;;;;;;23.13;4.90;;;;;;;;;;4987907;28;20049;-66
2022/09/30 05:41:38;;;;;;;20.85;2.97;;;;;;;;;;4991995;28;20056;-66
2022/09/30 05:44:05;;;;;;;19.75;2.75;;;;;;;;;;4990414;28;20505;-66
2022/09/30 05:46:31;;;;;;;30.50;2.97;;;;;;;;;;4987955;28;20053;-66
2022/09/30 05:48:57;;;;;;;37.88;2.58;;;;;;;;;;4987409;28;20077;-66
2022/09/30 05:51:23;;;;;;;43.63;2.55;;;;;;;;;;4986788;28;20058;-66
2022/09/30 05:53:50;;;;;;;38.65;2.63;;;;;;;;;;4989783;28;20053;-66
2022/09/30 05:56:17;;;;;;;45.67;2.60;;;;;;;;;;4989237;28;20129;-65
2022/09/30 05:58:43;;;;;;;67.20;2.95;;;;;;;;;;4990470;28;20102;-65
2022/09/30 06:01:11;;;;;;;62.55;3.22;;;;;;;;;;4991806;28;20490;-66
2022/09/30 06:03:37;;;;;;;99.15;4.13;;;;;;;;;;4990260;28;20050;-66
2022/09/30 06:06:04;;;;;;;44.70;2.53;;;;;;;;;;4989016;28;20054;-65
2022/09/30 06:08:30;;;;;;;34.60;2.95;;;;;;;;;;4974280;28;20443;-66
2022/09/30 06:10:58;;;;;;;36.92;2.80;;;;;;;;;;4971899;28;20057;-65
2022/09/30 06:13:25;;;;;;;73.25;3.75;;;;;;;;;;4971365;28;20395;-65
2022/09/30 06:15:59;;;;;;;40.83;4.53;;;;;;;;;;4971847;28;20047;-65
2022/09/30 06:18:26;;;;;;;;;;;;;;;;;;4972285;28;20456;-65
2022/09/30 06:20:55;;;;;;;69.35;4.43;;;;;;;;;;4971423;28;19922;-66
2022/09/30 06:23:21;;;;;;;69.65;4.10;;;;;;;;;;4954011;28;20069;-66
2022/09/30 06:25:51;;;;;;;26.58;3.00;;;;;;;;;;4953302;28;20053;-65
2022/09/30 06:28:18;;;;;;;21.95;2.55;;;;;;;;;;4954145;28;20104;-66
2022/09/30 06:30:44;;;;;;;29.35;2.15;;;;;;;;;;4971606;28;20051;-64
2022/09/30 06:33:10;;;;;;;63.33;3.42;;;;;;;;;;4971041;28;20051;-64
2022/09/30 06:35:36;;;;;;;101.50;5.03;;;;;;;;;;4971346;28;20450;-65
2022/09/30 06:38:03;;;;;;;92.82;4.53;;;;;;;;;;4971030;28;20035;-64
2022/09/30 06:40:29;;;;;;;82.32;4.78;;;;;;;;;;4971102;28;20102;-64
2022/09/30 06:43:01;;;;;;;103.10;5.28;;;;;;;;;;4971188;28;20130;-66
2022/09/30 06:45:28;;;;;;;99.22;4.88;;;;;;;;;;4953214;28;20126;-66
2022/09/30 06:47:56;;;;;;;65.30;4.80;;;;;;;;;;4970779;28;20114;-66
2022/09/30 06:50:23;;;;;;;65.95;4.65;;;;;;;;;;4953494;28;20466;-66
2022/09/30 06:52:50;;;;;;;45.22;4.88;;;;;;;;;;4971164;28;20113;-66
2022/09/30 06:55:17;;;;;;;39.00;4.30;;;;;;;;;;4951775;28;20051;-66
2022/09/30 06:57:46;;;;;;;30.92;4.30;;;;;;;;;;4952236;28;20138;-66
2022/09/30 07:00:15;;;;;;;43.53;4.93;;;;;;;;;;4953393;28;20047;-66
2022/09/30 07:02:41;;;;;;;17.10;5.63;;;;;;;;;;4952453;28;20054;-66
2022/09/30 07:05:08;;;;;;;18.88;6.63;;;;;;;;;;4970184;28;20213;-66
2022/09/30 07:07:35;;;;;;;9.95;6.78;;;;;;;;;;4969813;28;20165;-66
2022/09/30 07:10:02;;;;;;;10.23;7.28;;;;;;;;;;4968053;28;20114;-66
2022/09/30 07:12:28;;;;;;;14.27;9.38;;;;;;;;;;4953073;28;20046;-66
2022/09/30 07:14:55;;;;;;;13.00;9.27;;;;;;;;;;4953026;28;20046;-66
2022/09/30 07:17:22;;;;;;;14.32;9.70;;;;;;;;;;4970404;28;20042;-65
2022/09/30 07:19:50;;;;;;;16.20;10.57;;;;;;;;;;4953218;28;20061;-66
2022/09/30 07:22:26;;;;;;;15.52;10.98;;;;;;;;;;4953177;28;20860;-66
2022/09/30 07:24:52;;;;;;;17.75;12.27;;;;;;;;;;4953530;28;20122;-66
2022/09/30 07:27:19;;;;;;;19.85;12.07;;;;;;;;;;4970937;28;20061;-66
2022/09/30 07:29:46;;;;;;;19.80;13.27;;;;;;;;;;4969845;28;20344;-66
2022/09/30 07:32:12;;;;;;;19.55;13.63;;;;;;;;;;4970260;28;20049;-66
2022/09/30 07:34:41;;;;;;;22.65;14.88;;;;;;;;;;4970659;28;20817;-66
2022/09/30 07:37:15;;;;;;;25.05;16.38;;;;;;;;;;4969714;28;20130;-66
2022/09/30 07:39:43;;;;;;;27.75;15.98;;;;;;;;;;4971174;28;20423;-66
2022/09/30 07:42:09;;;;;;;23.70;15.48;;;;;;;;;;4968729;28;20043;-66
2022/09/30 07:44:41;;;;;;;26.15;16.60;;;;;;;;;;4968577;28;20118;-66
2022/09/30 07:47:08;;;;;;;22.27;15.23;;;;;;;;;;4945282;28;20058;-66
2022/09/30 07:49:35;;;;;;;24.63;17.35;;;;;;;;;;4967973;28;20054;-66
2022/09/30 07:52:01;;;;;;;25.27;16.98;;;;;;;;;;4963600;28;20143;-67
2022/09/30 07:54:29;;;;;;;25.55;17.77;;;;;;;;;;4964055;28;20042;-66
2022/09/30 07:56:56;;;;;;;23.33;16.48;;;;;;;;;;4967439;28;20065;-66
2022/09/30 07:59:22;;;;;;;32.30;16.50;;;;;;;;;;4962854;28;20138;-66
2022/09/30 08:01:49;;;;;;;24.02;17.45;;;;;;;;;;4965568;28;20058;-66
2022/09/30 08:04:16;;;;;;;25.85;16.98;;;;;;;;;;4964432;28;20051;-66
2022/09/30 08:06:45;;;;;;;23.13;14.85;;;;;;;;;;4969178;28;20064;-70
2022/09/30 08:09:11;;;;;;;23.40;16.10;;;;;;;;;;4984722;28;20108;-66
2022/09/30 08:11:38;;;;;;;24.45;15.63;;;;;;;;;;4985402;28;20050;-66
2022/09/30 08:14:04;;;;;;;18.33;13.80;;;;;;;;;;4984455;28;20073;-66
2022/09/30 08:16:30;;;;;;;19.60;14.98;;;;;;;;;;4988822;28;20047;-66
2022/09/30 08:18:59;;;;;;;17.10;12.38;;;;;;;;;;4989106;28;20176;-66
2022/09/30 08:21:26;;;;;;;17.73;12.52;;;;;;;;;;4987801;28;20104;-66
2022/09/30 08:23:52;;;;;;;15.98;12.13;;;;;;;;;;4991548;28;20050;-66
2022/09/30 08:26:19;;;;;;;17.73;12.40;;;;;;;;;;4988337;28;20343;-66
2022/09/30 08:28:47;;;;;;;17.00;11.10;;;;;;;;;;4989834;28;20371;-66
2022/09/30 08:31:15;;;;;;;17.33;12.43;;;;;;;;;;4989625;28;20584;-66
2022/09/30 08:33:41;;;;;;;15.00;11.70;;;;;;;;;;4989470;28;20385;-66
2022/09/30 08:36:10;;;;;;;20.05;11.82;;;;;;;;;;4990671;28;20661;-66
2022/09/30 08:38:36;;;;;;;14.68;10.93;;;;;;;;;;4989388;28;20448;-66
2022/09/30 08:41:03;;;;;;;17.75;10.60;;;;;;;;;;4987302;28;20042;-67
2022/09/30 08:43:35;;;;;;;13.57;9.32;;;;;;;;;;4988696;28;20085;-66
2022/09/30 08:46:11;;;;;;;12.07;8.30;;;;;;;;;;4989153;28;20117;-66
2022/09/30 08:48:42;;;;;;;10.25;8.18;;;;;;;;;;4987818;28;20046;-66
2022/09/30 08:51:15;;;;;;;11.18;8.18;;;;;;;;;;4986281;28;20069;-66
2022/09/30 08:53:43;;;;;;;10.13;8.27;;;;;;;;;;4987531;28;20050;-66
2022/09/30 08:56:12;;;;;;;8.45;6.88;;;;;;;;;;4987993;28;20042;-66
2022/09/30 08:58:40;;;;;;;8.63;6.68;;;;;;;;;;4988495;28;20085;-66
2022/09/30 09:01:18;;;;;;;6.35;5.57;;;;;;;;;;4988157;28;20114;-66
2022/09/30 09:03:45;;;;;;;9.40;6.05;;;;;;;;;;4989167;28;20145;-66
2022/09/30 09:06:23;;;;;;;7.75;5.78;;;;;;;;;;4989204;28;20122;-66
2022/09/30 09:08:52;;;;;;;7.45;4.75;;;;;;;;;;4984080;28;20482;-66
2022/09/30 09:11:39;;;;;;;9.27;4.75;;;;;;;;;;4988678;28;20097;-66
2022/09/30 09:14:12;;;;;;;5.47;3.75;;;;;;;;;;4985640;28;20056;-66
2022/09/30 09:16:42;;;;;;;8.35;4.47;;;;;;;;;;4986252;28;20053;-66
2022/09/30 09:19:11;;;;;;;8.15;4.97;;;;;;;;;;4985875;28;20054;-66
2022/09/30 09:21:47;;;;;;;8.18;4.85;;;;;;;;;;4986419;28;20072;-67
2022/09/30 09:24:16;;;;;;;7.70;4.88;;;;;;;;;;4985436;28;20049;-66
2022/09/30 09:26:42;;;;;;;7.70;6.18;;;;;;;;;;4987096;28;20461;-66
2022/09/30 09:29:14;;;;;;;10.75;7.05;;;;;;;;;;4988164;28;20461;-66
2022/09/30 09:31:40;;;;;;;10.90;7.50;;;;;;;;;;4970943;28;20051;-66
2022/09/30 09:34:08;;;;;;;12.10;6.70;;;;;;;;;;4987752;28;20061;-66
2022/09/30 09:36:46;;;;;;;8.23;6.10;;;;;;;;;;4987150;28;20055;-66
2022/09/30 09:39:12;;;;;;;10.73;6.97;;;;;;;;;;4989808;28;20042;-67
2022/09/30 09:41:46;;;;;;;8.82;7.40;;;;;;;;;;4986906;28;20053;-66
2022/09/30 09:44:12;;;;;;;;;;;;;;;;;;4988187;28;20506;-66
2022/09/30 09:46:43;;;;;;;8.88;7.22;;;;;;;;;;4985251;28;19961;-66
2022/09/30 09:49:11;;;;;;;10.60;7.10;;;;;;;;;;4971369;28;20042;-67
2022/09/30 09:51:40;;;;;;;8.52;7.63;;;;;;;;;;4989112;28;20488;-66
2022/09/30 09:54:10;;;;;;;10.20;7.88;;;;;;;;;;4991001;28;20090;-66
2022/09/30 09:56:36;;;;;;;9.70;7.68;;;;;;;;;;4989910;28;20047;-67
2022/09/30 09:59:05;;;;;;;10.40;7.10;;;;;;;;;;4989238;28;20126;-66
2022/09/30 10:01:31;;;;;;;10.45;7.00;;;;;;;;;;4990550;28;20042;-67
2022/09/30 10:04:20;;;;;;;13.85;7.65;;;;;;;;;;4991317;28;20046;-66
2022/09/30 10:06:46;;;;;;;8.20;5.55;;;;;;;;;;4989118;28;20042;-67
2022/09/30 10:09:32;;;;;;;9.23;6.72;;;;;;;;;;4990352;28;20050;-66
2022/09/30 10:12:05;;;;;;;8.40;4.90;;;;;;;;;;4987861;28;20042;-66
2022/09/30 10:14:35;;;;;;;7.05;4.40;;;;;;;;;;4990804;28;20048;-67
2022/09/30 10:17:03;;;;;;;4.47;3.08;;;;;;;;;;4990952;28;20053;-66
2022/09/30 10:19:30;;;;;;;6.05;3.10;;;;;;;;;;4990583;28;20193;-66
2022/09/30 10:22:07;;;;;;;9.32;3.40;;;;;;;;;;4989925;28;20059;-66
2022/09/30 10:24:34;;;;;;;8.35;3.80;;;;;;;;;;4987281;28;20042;-66
2022/09/30 10:27:00;;;;;;;7.07;3.50;;;;;;;;;;4990223;28;20370;-66
2022/09/30 10:29:28;;;;;;;6.53;4.30;;;;;;;;;;4989366;28;20053;-66
2022/09/30 10:31:55;;;;;;;6.07;4.00;;;;;;;;;;4987407;28;20121;-66
2022/09/30 10:34:31;;;;;;;5.78;3.45;;;;;;;;;;4990303;28;20037;-67
2022/09/30 10:37:01;;;;;;;4.70;3.05;;;;;;;;;;4989123;28;20089;-67
2022/09/30 10:39:34;;;;;;;4.50;2.92;;;;;;;;;;4988961;28;20038;-66
2022/09/30 10:42:02;;;;;;;4.88;3.17;;;;;;;;;;4988295;28;20117;-66
2022/09/30 10:44:29;;;;;;;4.78;2.55;;;;;;;;;;4989399;28;20061;-66
2022/09/30 10:47:00;;;;;;;5.97;2.85;;;;;;;;;;4988573;28;20064;-66
2022/09/30 10:49:39;;;;;;;6.70;3.38;;;;;;;;;;4991652;28;20482;-66
2022/09/30 10:52:06;;;;;;;7.45;3.03;;;;;;;;;;4978895;28;20042;-66
2022/09/30 10:54:36;;;;;;;5.00;2.95;;;;;;;;;;4980840;28;20043;-65
2022/09/30 10:57:03;;;;;;;5.80;3.22;;;;;;;;;;4982056;28;20151;-66
2022/09/30 10:59:33;;;;;;;6.90;3.72;;;;;;;;;;4983988;28;20133;-66
2022/09/30 11:02:04;;;;;;;6.05;3.67;;;;;;;;;;4983543;28;20066;-66
2022/09/30 11:04:32;;;;;;;7.45;3.92;;;;;;;;;;4984882;28;20121;-65
2022/09/30 11:07:03;;;;;;;5.93;3.20;;;;;;;;;;4983791;28;20054;-65
2022/09/30 11:09:34;;;;;;;5.05;3.30;;;;;;;;;;4983381;28;20147;-65
2022/09/30 11:12:03;;;;;;;6.68;2.90;;;;;;;;;;4982391;28;20414;-65
2022/09/30 11:14:35;;;;;;;4.82;2.90;;;;;;;;;;4981903;28;20054;-65
2022/09/30 11:17:02;;;;;;;7.68;3.22;;;;;;;;;;4983043;28;20120;-65
2022/09/30 11:19:32;;;;;;;5.45;3.22;;;;;;;;;;4979784;28;20054;-66
2022/09/30 11:22:03;;;;;;;4.18;1.95;;;;;;;;;;4980847;28;20038;-64
2022/09/30 11:24:36;;;;;;;3.42;1.27;;;;;;;;;;4982736;28;20041;-65
2022/09/30 11:27:15;;;;;;;2.50;1.00;;;;;;;;;;4981515;28;20040;-65
2022/09/30 11:29:50;;;;;;;4.22;1.23;;;;;;;;;;4981885;28;20077;-66
2022/09/30 11:32:23;;;;;;;3.13;1.00;;;;;;;;;;4984317;28;20357;-65
2022/09/30 11:35:10;;;;;;;2.35;1.10;;;;;;;;;;4982239;28;20052;-65
2022/09/30 11:37:49;;;;;;;3.00;0.82;;;;;;;;;;4969353;28;20137;-65
2022/09/30 11:40:19;;;;;;;1.40;0.60;;;;;;;;;;4985397;28;20038;-65
2022/09/30 11:42:46;;;;;;;1.55;0.80;;;;;;;;;;4985889;28;20116;-65
2022/09/30 11:45:20;;;;;;;1.92;0.80;;;;;;;;;;4985252;28;20585;-65
2022/09/30 11:47:53;;;;;;;0.60;0.40;;;;;;;;;;4984558;28;20065;-65
2022/09/30 11:50:19;;;;;;;0.75;0.50;;;;;;;;;;4983103;28;20054;-65
2022/09/30 11:52:57;;;;;;;1.27;0.60;;;;;;;;;;4984989;28;20113;-66
2022/09/30 11:55:23;;;;;;;2.70;0.60;;;;;;;;;;4985238;28;20106;-66
2022/09/30 11:57:52;;;;;;;2.05;0.57;;;;;;;;;;4988478;28;20478;-66
2022/09/30 12:00:19;;;;;;;2.47;0.73;;;;;;;;;;4983491;28;20356;-66
2022/09/30 12:02:51;;;;;;;0.50;0.40;;;;;;;;;;4978632;28;20138;-66
2022/09/30 12:05:22;;;;;;;2.17;0.80;;;;;;;;;;4984587;28;20040;-66
2022/09/30 12:07:52;;;;;;;0.90;0.40;;;;;;;;;;4984464;28;20440;-66
2022/09/30 12:10:25;;;;;;;2.50;0.50;;;;;;;;;;4985406;28;20069;-66
2022/09/30 12:12:58;;;;;;;3.25;0.50;;;;;;;;;;4983440;28;20094;-67
2022/09/30 12:15:26;;;;;;;1.75;0.47;;;;;;;;;;4985164;28;20063;-67
2022/09/30 12:17:58;;;;;;;3.05;0.57;;;;;;;;;;4984964;28;20046;-67
2022/09/30 12:20:30;;;;;;;2.13;0.63;;;;;;;;;;4984752;28;20058;-66
2022/09/30 12:23:00;;;;;;;2.15;0.70;;;;;;;;;;4986102;28;20050;-66
2022/09/30 12:25:32;;;;;;;1.85;0.80;;;;;;;;;;4984632;28;20096;-66
2022/09/30 12:30:15;;;;;;;3.10;0.80;;;;;;;;;;4966769;28;20046;-66
2022/09/30 12:30:54;;;;;;;3.88;1.00;;;;;;;;;;4985414;28;20485;-66
2022/09/30 12:33:36;;;;;;;3.65;1.08;;;;;;;;;;4985585;28;20030;-65
2022/09/30 12:36:17;;;;;;;3.22;0.93;;;;;;;;;;4986917;28;20054;-66
2022/09/30 12:38:53;;;;;;;2.33;1.10;;;;;;;;;;4984020;28;20078;-66
2022/09/30 12:41:20;;;;;;;3.72;1.15;;;;;;;;;;4986459;28;20050;-66
2022/09/30 12:43:46;;;;;;;2.25;1.05;;;;;;;;;;4986272;28;20101;-65
2022/09/30 12:46:19;;;;;;;1.73;0.85;;;;;;;;;;4985559;28;20092;-66
2022/09/30 12:48:45;;;;;;;;;;;;;;;;;;4986048;28;20046;-66
2022/09/30 12:51:21;;;;;;;5.45;1.05;;;;;;;;;;4985754;28;19922;-66
2022/09/30 12:53:49;;;;;;;2.25;0.70;;;;;;;;;;4982923;28;20045;-66
2022/09/30 12:56:17;;;;;;;1.85;0.80;;;;;;;;;;4984374;28;20135;-66
2022/09/30 12:58:45;;;;;;;2.17;0.68;;;;;;;;;;4985363;28;20050;-66
2022/09/30 13:01:13;;;;;;;2.03;0.82;;;;;;;;;;4983521;28;20481;-68
2022/09/30 13:03:44;;;;;;;1.27;0.50;;;;;;;;;;4987256;28;20386;-65
2022/09/30 13:06:10;;;;;;;2.20;0.50;;;;;;;;;;4992971;28;20046;-65
2022/09/30 13:08:42;;;;;;;2.05;0.75;;;;;;;;;;4975907;28;20081;-65
2022/09/30 13:11:30;;;;;;;3.22;0.73;;;;;;;;;;4968280;28;20058;-65
2022/09/30 13:14:04;;;;;;;2.40;0.80;;;;;;;;;;4965535;28;20616;-65
2022/09/30 13:16:51;;;;;;;4.00;1.33;;;;;;;;;;4969973;28;20035;-65
2022/09/30 13:19:20;;;;;;;5.22;0.80;;;;;;;;;;4965660;28;20046;-65
2022/09/30 13:21:47;;;;;;;3.03;0.93;;;;;;;;;;4964583;28;20145;-65
2022/09/30 13:24:15;;;;;;;5.53;1.83;;;;;;;;;;4965229;28;20038;-65
2022/09/30 13:26:47;;;;;;;1.88;1.00;;;;;;;;;;4967903;28;20057;-65
2022/09/30 13:29:13;;;;;;;4.93;1.20;;;;;;;;;;4967871;28;20129;-65
2022/09/30 13:31:45;;;;;;;6.28;1.20;;;;;;;;;;4969555;28;20224;-66
2022/09/30 13:34:14;;;;;;;2.33;0.98;;;;;;;;;;4942080;28;20097;-65
2022/09/30 13:36:43;;;;;;;3.08;1.30;;;;;;;;;;4962175;28;20070;-65
2022/09/30 13:39:18;;;;;;;2.10;1.05;;;;;;;;;;4962862;28;20042;-65
2022/09/30 13:41:48;;;;;;;4.25;1.40;;;;;;;;;;4966623;28;20042;-66
2022/09/30 13:44:16;;;;;;;2.75;1.27;;;;;;;;;;4951398;28;20039;-66
2022/09/30 13:46:48;;;;;;;2.28;1.17;;;;;;;;;;4969370;28;20055;-66
2022/09/30 13:49:21;;;;;;;4.53;1.20;;;;;;;;;;4967131;28;20121;-65
2022/09/30 13:51:47;;;;;;;8.43;1.80;;;;;;;;;;4951089;28;20070;-65
2022/09/30 13:54:23;;;;;;;3.03;1.33;;;;;;;;;;4953777;28;20047;-65
2022/09/30 13:56:49;;;;;;;2.05;1.10;;;;;;;;;;4969827;28;20051;-65
2022/09/30 13:59:30;;;;;;;10.57;1.83;;;;;;;;;;4953397;28;20038;-65
2022/09/30 14:02:17;;;;;;;3.08;0.93;;;;;;;;;;4964311;28;20083;-65
2022/09/30 14:04:51;;;;;;;2.35;0.98;;;;;;;;;;4968466;28;20375;-65
2022/09/30 14:07:29;;;;;;;4.28;1.20;;;;;;;;;;4970575;28;20089;-65
2022/09/30 14:09:55;;;;;;;3.53;1.17;;;;;;;;;;4984097;28;20038;-65
2022/09/30 14:12:29;;;;;;;5.75;1.33;;;;;;;;;;4983794;28;20445;-65
2022/09/30 14:14:55;;;;;;;;;;;;;;;;;;4984890;28;20442;-65
2022/09/30 14:17:28;;;;;;;5.95;1.30;;;;;;;;;;4985110;28;20028;-66
2022/09/30 14:19:57;;;;;;;3.75;1.00;;;;;;;;;;4985583;28;20483;-65
2022/09/30 14:22:26;;;;;;;2.95;0.90;;;;;;;;;;4983110;28;20121;-65
2022/09/30 14:24:52;;;;;;;2.40;1.10;;;;;;;;;;4982919;28;20394;-66
2022/09/30 14:27:26;;;;;;;2.42;0.90;;;;;;;;;;4983390;28;20050;-66
2022/09/30 14:29:59;;;;;;;2.17;0.90;;;;;;;;;;4979703;28;20073;-66
2022/09/30 14:32:27;;;;;;;2.47;1.05;;;;;;;;;;4982094;28;20046;-66
2022/09/30 14:34:54;;;;;;;6.18;1.40;;;;;;;;;;4985041;28;21256;-67
2022/09/30 14:37:23;;;;;;;2.30;0.80;;;;;;;;;;4983679;28;20042;-66
2022/09/30 14:39:49;;;;;;;2.22;0.95;;;;;;;;;;4982211;28;20150;-66
2022/09/30 14:42:23;;;;;;;2.38;0.90;;;;;;;;;;4983697;28;20494;-65
2022/09/30 14:44:50;;;;;;;4.03;1.00;;;;;;;;;;4982814;28;20792;-65
2022/09/30 14:47:17;;;;;;;1.55;0.75;;;;;;;;;;4985935;28;20405;-65
2022/09/30 14:49:43;;;;;;;3.78;0.80;;;;;;;;;;4983411;28;20054;-65